Time;durP1;ratioP1;P1;durP2;ratioP2;P2;SDS_P1;SDS_P2;PMS_P1;PMS_P2;Temp;Humidity;BMP_temperature;BMP_pressure;BME280_temperature;BME280_humidity;BME280_pressure;Samples;Min_cycle;Max_cycle;Signal;HPM_P1;HPM_P2
2021/07/26 00:01:00;;;;;;;19.52;13.72;;;;;;;20.06;67.44;101052.23;1798284;78;21027;-85
2021/07/26 00:03:27;;;;;;;17.90;14.38;;;;;;;20.03;67.55;101053.16;1798224;79;21062;-85
2021/07/26 00:05:56;;;;;;;17.92;14.70;;;;;;;19.99;67.64;101061.65;1798052;79;21028;-85
2021/07/26 00:08:23;;;;;;;23.55;14.93;;;;;;;19.98;67.73;101056.31;1797692;79;21000;-85
2021/07/26 00:11:04;;;;;;;40.10;15.08;;;;;;;19.95;67.79;101057.23;1798310;79;22563;-85
2021/07/26 00:13:30;;;;;;;22.82;14.35;;;;;;;19.92;67.86;101055.04;1798062;78;21024;-85
2021/07/26 00:15:57;;;;;;;18.98;15.00;;;;;;;19.89;67.99;101051.05;1798197;78;20924;-85
2021/07/26 00:18:24;;;;;;;16.52;14.70;;;;;;;19.86;68.07;101049.73;1797970;79;21063;-85
2021/07/26 00:20:50;;;;;;;17.25;14.30;;;;;;;19.84;68.14;101043.52;1798326;79;20999;-85
2021/07/26 00:23:17;;;;;;;24.15;14.58;;;;;;;19.79;68.18;101037.77;1798104;79;21749;-85
2021/07/26 00:25:44;;;;;;;18.62;14.35;;;;;;;19.78;68.22;101039.11;1798143;79;21043;-85
2021/07/26 00:28:11;;;;;;;15.70;14.03;;;;;;;19.75;68.31;101041.83;1798115;79;20987;-85
2021/07/26 00:30:38;;;;;;;17.92;14.95;;;;;;;19.73;68.38;101040.95;1798358;78;20996;-85
2021/07/26 00:33:57;;;;;;;19.23;14.38;;;;;;;19.72;68.47;101042.72;1798057;79;21015;-85
2021/07/26 00:36:13;;;;;;;16.75;15.03;;;;;;;19.72;68.50;101032.03;1796022;78;21923;-85
2021/07/26 00:38:39;;;;;;;20.92;14.55;;;;;;;19.72;68.49;101044.05;1798345;79;21041;-85
2021/07/26 00:41:08;;;;;;;16.90;14.78;;;;;;;19.71;68.51;101047.61;1798318;79;21003;-85
2021/07/26 00:43:35;;;;;;;23.83;16.50;;;;;;;19.70;68.54;101047.61;1798307;79;21090;-85
2021/07/26 00:46:01;;;;;;;17.12;13.93;;;;;;;19.69;68.63;101044.48;1798352;79;21577;-85
2021/07/26 00:48:28;;;;;;;16.27;14.20;;;;;;;19.70;68.74;101036.47;1798348;78;21731;-85
2021/07/26 00:50:55;;;;;;;19.05;14.87;;;;;;;19.70;68.76;101035.59;1798311;78;20979;-85
2021/07/26 00:53:21;;;;;;;16.57;13.98;;;;;;;19.69;68.79;101026.70;1798360;78;21028;-85
2021/07/26 00:55:48;;;;;;;16.20;14.18;;;;;;;19.69;68.82;101029.80;1798388;79;21540;-85
2021/07/26 00:58:15;;;;;;;20.92;14.43;;;;;;;19.71;68.89;101038.72;1798461;78;21050;-85
2021/07/26 01:00:42;;;;;;;18.45;14.38;;;;;;;19.71;68.81;101027.58;1798463;79;21742;-85
2021/07/26 01:03:08;;;;;;;16.65;13.43;;;;;;;19.70;68.81;101028.46;1798322;79;21000;-85
2021/07/26 01:05:35;;;;;;;19.80;14.20;;;;;;;19.70;68.83;101023.58;1798729;79;20984;-85
2021/07/26 01:08:02;;;;;;;18.48;14.18;;;;;;;19.68;68.85;101034.27;1798328;79;21549;-85
2021/07/26 01:10:28;;;;;;;19.48;13.98;;;;;;;19.65;68.83;101031.61;1798457;78;21015;-85
2021/07/26 01:12:55;;;;;;;16.65;14.80;;;;;;;19.63;68.83;101030.73;1798494;78;21694;-85
2021/07/26 01:15:22;;;;;;;17.10;14.63;;;;;;;19.58;68.88;101021.44;1798237;79;21094;-85
2021/07/26 01:18:27;;;;;;;16.50;14.47;;;;;;;19.55;68.99;101024.13;1798327;79;21034;-85
2021/07/26 01:20:57;;;;;;;19.37;15.35;;;;;;;19.51;68.94;101025.51;1797937;78;20968;-85
2021/07/26 01:23:24;;;;;;;20.85;13.80;;;;;;;19.46;69.07;101024.19;1798430;79;21035;-86
2021/07/26 01:25:51;;;;;;;17.05;14.15;;;;;;;19.42;69.18;101017.98;1798679;78;22431;-85
2021/07/26 01:28:19;;;;;;;16.12;13.18;;;;;;;19.40;69.24;101021.58;1798174;79;21538;-86
2021/07/26 01:30:46;;;;;;;16.80;14.13;;;;;;;19.38;69.33;101014.03;1798226;78;21512;-85
2021/07/26 01:33:14;;;;;;;17.30;14.33;;;;;;;19.39;69.40;101019.82;1810598;79;20988;-85
2021/07/26 01:35:41;;;;;;;18.73;14.70;;;;;;;19.39;69.47;101018.48;1797811;79;21031;-85
2021/07/26 01:38:08;;;;;;;18.60;14.45;;;;;;;19.40;69.55;101012.23;1798009;79;21749;-85
2021/07/26 01:40:40;;;;;;;15.50;13.90;;;;;;;19.41;69.59;101020.23;1798216;79;21063;-85
2021/07/26 01:43:09;;;;;;;16.95;14.33;;;;;;;19.44;69.57;101017.98;1798260;78;21035;-85
2021/07/26 01:45:38;;;;;;;18.42;14.30;;;;;;;19.46;69.58;101014.84;1798166;78;21540;-86
2021/07/26 01:48:22;;;;;;;17.25;14.70;;;;;;;19.48;69.56;101013.51;1798016;78;21509;-86
2021/07/26 01:50:53;;;;;;;18.98;14.07;;;;;;;19.50;69.52;101013.95;1739735;81;43734;-86
2021/07/26 01:53:20;;;;;;;17.35;14.30;;;;;;;19.54;69.52;101013.03;1765509;81;21110;-86
2021/07/26 01:55:47;;;;;;;16.27;14.58;;;;;;;19.53;69.46;101009.91;1765769;81;21062;-86
2021/07/26 01:58:13;;;;;;;17.32;14.58;;;;;;;19.54;69.46;101009.45;1765668;81;21073;-86
2021/07/26 02:00:40;;;;;;;17.37;14.30;;;;;;;19.54;69.45;101014.36;1765824;81;20996;-86
2021/07/26 02:03:07;;;;;;;16.93;13.88;;;;;;;19.53;69.47;101021.92;1766054;81;22399;-86
2021/07/26 02:05:33;;;;;;;16.52;13.68;;;;;;;19.51;69.41;101018.38;1765973;81;21039;-86
2021/07/26 02:08:00;;;;;;;17.07;13.68;;;;;;;19.52;69.49;101018.83;1766163;81;21090;-86
2021/07/26 02:10:27;;;;;;;16.45;13.93;;;;;;;19.50;69.42;101021.97;1766401;81;21062;-86
2021/07/26 02:12:53;;;;;;;17.42;13.25;;;;;;;19.48;69.39;101026.40;1766078;81;21528;-86
2021/07/26 02:15:20;;;;;;;18.73;14.50;;;;;;;19.44;69.38;101020.66;1740623;81;21178;-86
2021/07/26 02:17:47;;;;;;;19.30;14.20;;;;;;;19.41;69.39;101023.36;1765924;81;20996;-86
2021/07/26 02:20:16;;;;;;;16.82;13.90;;;;;;;19.35;69.38;101025.62;1765974;81;21493;-89
2021/07/26 02:22:44;;;;;;;18.23;14.23;;;;;;;19.26;69.50;101024.35;1766160;81;21573;-86
2021/07/26 02:25:12;;;;;;;16.20;13.60;;;;;;;19.18;69.67;101035.08;1765961;81;21627;-85
2021/07/26 02:27:45;;;;;;;22.67;14.60;;;;;;;19.14;69.81;101044.42;1778530;79;21723;-86
2021/07/26 02:30:13;;;;;;;16.32;14.60;;;;;;;19.10;69.95;101044.88;1796040;79;21000;-86
2021/07/26 02:32:40;;;;;;;17.92;14.50;;;;;;;19.04;70.10;101052.48;1798221;79;20980;-86
2021/07/26 02:35:08;;;;;;;17.23;14.28;;;;;;;19.00;70.20;101056.06;1798111;79;21040;-86
2021/07/26 02:37:34;;;;;;;18.05;14.38;;;;;;;18.96;70.33;101056.09;1800805;78;20984;-86
2021/07/26 02:40:01;;;;;;;16.87;14.98;;;;;;;18.91;70.44;101059.23;1796875;79;21793;-86
2021/07/26 02:42:28;;;;;;;18.20;15.63;;;;;;;18.86;70.58;101057.89;1797933;78;21165;-86
2021/07/26 02:44:55;;;;;;;19.77;14.85;;;;;;;18.81;70.68;101059.27;1797889;79;20948;-86
2021/07/26 02:47:22;;;;;;;17.32;14.70;;;;;;;18.76;70.86;101057.02;1797961;79;20996;-86
2021/07/26 02:49:49;;;;;;;22.58;15.30;;;;;;;18.74;71.00;101061.92;1806237;78;21004;-86
2021/07/26 02:52:15;;;;;;;22.45;14.53;;;;;;;18.72;71.11;101063.72;1797941;79;21780;-86
2021/07/26 02:54:42;;;;;;;17.12;15.25;;;;;;;18.70;71.18;101062.84;1797955;79;20989;-86
2021/07/26 02:57:09;;;;;;;18.62;15.03;;;;;;;18.69;71.27;101063.71;1797972;78;21004;-86
2021/07/26 02:59:35;;;;;;;20.30;15.23;;;;;;;18.69;71.35;101067.25;1798088;79;20967;-86
2021/07/26 03:02:02;;;;;;;16.40;14.80;;;;;;;18.69;71.43;101070.38;1798002;79;21028;-86
2021/07/26 03:04:30;;;;;;;17.60;15.75;;;;;;;18.70;71.49;101073.05;1798192;79;21757;-86
2021/07/26 03:06:57;;;;;;;16.57;14.73;;;;;;;18.74;71.51;101075.26;1840860;77;20908;-86
2021/07/26 03:09:24;;;;;;;19.70;15.08;;;;;;;18.77;71.53;101069.89;1827426;76;21125;-85
2021/07/26 03:11:50;;;;;;;17.30;14.18;;;;;;;18.80;71.53;101083.23;1837178;77;21460;-86
2021/07/26 03:14:17;;;;;;;17.85;14.30;;;;;;;18.86;71.53;101073.02;1847318;77;20974;-86
2021/07/26 03:16:43;;;;;;;18.75;15.10;;;;;;;18.90;71.57;101073.02;1848220;77;21725;-85
2021/07/26 03:19:11;;;;;;;15.68;14.07;;;;;;;18.97;71.51;101083.20;1819901;76;20990;-86
2021/07/26 03:21:38;;;;;;;19.32;14.68;;;;;;;19.04;71.51;101083.61;1851471;77;20998;-85
2021/07/26 03:24:06;;;;;;;16.23;14.53;;;;;;;19.15;71.49;101083.11;1823199;77;21006;-86
2021/07/26 03:26:32;;;;;;;19.30;14.80;;;;;;;19.26;71.34;101084.83;1815972;76;21027;-86
2021/07/26 03:28:59;;;;;;;22.73;14.33;;;;;;;19.36;71.26;101084.77;1808375;79;22608;-86
2021/07/26 03:31:26;;;;;;;17.00;13.88;;;;;;;19.50;71.12;101087.80;1817543;76;21576;-85
2021/07/26 03:33:53;;;;;;;16.97;13.43;;;;;;;19.65;71.00;101084.14;1847242;77;21019;-86
2021/07/26 03:36:19;;;;;;;18.45;13.20;;;;;;;19.81;70.81;101084.05;1806769;76;21201;-86
2021/07/26 03:38:46;;;;;;;19.98;13.83;;;;;;;19.99;70.57;101085.70;1816774;77;21006;-86
2021/07/26 03:41:13;;;;;;;16.75;13.15;;;;;;;20.19;70.41;101088.17;1823696;76;21737;-85
2021/07/26 03:43:39;;;;;;;15.93;13.15;;;;;;;20.42;70.15;101085.75;1822936;77;21500;-86
2021/07/26 03:46:06;;;;;;;15.05;12.68;;;;;;;20.68;69.87;101092.16;1808677;78;20984;-86
2021/07/26 03:48:33;;;;;;;16.05;13.18;;;;;;;21.19;70.11;101088.88;1814887;76;20983;-86
2021/07/26 03:51:00;;;;;;;14.15;12.65;;;;;;;22.07;69.88;101083.09;1829292;77;21026;-85
2021/07/26 03:53:26;;;;;;;16.35;12.58;;;;;;;23.00;68.71;101091.63;1837125;76;21256;-86
2021/07/26 03:55:53;;;;;;;17.77;11.90;;;;;;;23.62;67.31;101086.25;1823938;77;20917;-86
2021/07/26 03:58:19;;;;;;;14.43;12.45;;;;;;;24.19;66.34;101084.86;1818369;76;20991;-86
2021/07/26 04:00:46;;;;;;;17.48;11.85;;;;;;;25.67;64.65;101082.83;1830718;77;21666;-86
2021/07/26 04:03:32;;;;;;;12.55;11.35;;;;;;;25.67;64.65;101082.83;1820342;76;21752;-86
2021/07/26 04:06:02;;;;;;;20.20;11.45;;;;;;;26.51;62.79;101087.66;1815962;78;21425;-86
2021/07/26 04:08:34;;;;;;;13.08;11.40;;;;;;;27.20;61.59;101088.25;1802195;77;21500;-87
2021/07/26 04:11:07;;;;;;;13.05;10.55;;;;;;;27.71;60.17;101083.97;1767786;79;20983;-85
2021/07/26 04:13:33;;;;;;;19.25;11.25;;;;;;;28.12;58.77;101087.28;1791746;79;21096;-85
2021/07/26 04:15:59;;;;;;;19.95;11.08;;;;;;;28.47;58.03;101080.32;1800170;79;21007;-87
2021/07/26 04:18:26;;;;;;;21.57;11.78;;;;;;;28.74;56.59;101079.14;1832739;77;22611;-87
2021/07/26 04:20:52;;;;;;;17.65;10.40;;;;;;;28.57;55.33;101079.91;1850000;77;20943;-87
2021/07/26 04:23:21;;;;;;;16.97;10.80;;;;;;;27.77;54.42;101077.42;1849890;77;21523;-87
2021/07/26 04:25:51;;;;;;;12.60;9.70;;;;;;;26.89;54.61;101082.20;1849908;77;21147;-86
2021/07/26 04:28:18;;;;;;;12.40;10.40;;;;;;;26.21;54.76;101081.53;1850028;77;20967;-86
2021/07/26 04:30:45;;;;;;;11.73;10.38;;;;;;;25.59;54.94;101071.42;1850031;77;21770;-86
2021/07/26 04:33:11;;;;;;;26.00;11.90;;;;;;;25.08;55.29;101075.67;1849896;77;20967;-88
2021/07/26 04:35:38;;;;;;;19.45;11.57;;;;;;;24.69;55.71;101062.44;1849937;77;21115;-87
2021/07/26 04:38:05;;;;;;;18.48;11.20;;;;;;;24.35;56.02;101066.05;1850033;77;21002;-88
2021/07/26 04:40:45;;;;;;;20.65;11.68;;;;;;;24.05;56.44;101071.78;1826415;77;21146;-87
2021/07/26 04:43:12;;;;;;;17.48;10.95;;;;;;;23.77;56.81;101068.41;1849583;77;23361;-86
2021/07/26 04:45:39;;;;;;;12.55;11.28;;;;;;;23.55;57.20;101067.16;1817781;77;21491;-87
2021/07/26 04:48:07;;;;;;;20.70;10.68;;;;;;;23.38;57.53;101063.06;1850004;77;21010;-85
2021/07/26 04:50:34;;;;;;;27.65;11.95;;;;;;;23.30;57.87;101066.39;1850128;77;20994;-86
2021/07/26 04:53:01;;;;;;;26.20;11.70;;;;;;;23.26;58.05;101075.45;1849587;77;20986;-87
2021/07/26 04:55:27;;;;;;;22.90;10.93;;;;;;;23.20;58.43;101084.95;1850073;77;21739;-87
2021/07/26 04:58:03;;;;;;;21.23;11.35;;;;;;;23.17;58.60;101085.05;1850180;77;20990;-87
2021/07/26 05:00:30;;;;;;;26.82;11.85;;;;;;;23.13;58.88;101084.69;1840883;77;21041;-87
2021/07/26 05:02:57;;;;;;;23.10;13.48;;;;;;;23.05;59.23;101069.62;1849344;77;21141;-90
2021/07/26 05:05:23;;;;;;;20.45;12.50;;;;;;;23.11;59.47;101075.33;1849415;77;20970;-87
2021/07/26 05:07:50;;;;;;;15.68;11.40;;;;;;;23.14;59.38;101070.33;1849316;77;21715;-87
2021/07/26 05:10:17;;;;;;;26.27;12.78;;;;;;;23.05;59.27;101049.96;1849136;77;21029;-88
2021/07/26 05:12:44;;;;;;;24.77;12.33;;;;;;;23.05;59.27;101049.96;1849412;77;20997;-87
2021/07/26 05:15:11;;;;;;;18.98;12.28;;;;;;;23.18;59.39;101080.99;1849647;77;21036;-88
2021/07/26 05:17:38;;;;;;;13.45;11.20;;;;;;;23.19;59.42;101080.05;1850100;77;21573;-87
2021/07/26 05:20:06;;;;;;;12.68;10.65;;;;;;;23.16;59.47;101082.83;1850018;77;21713;-87
2021/07/26 05:22:33;;;;;;;15.58;11.57;;;;;;;23.01;59.13;101058.50;1849785;77;20955;-87
2021/07/26 05:25:00;;;;;;;15.50;11.45;;;;;;;23.12;59.32;101081.10;1849985;77;21488;-87
2021/07/26 05:27:28;;;;;;;16.07;12.05;;;;;;;23.12;59.32;101081.10;1850111;77;21111;-87
2021/07/26 05:29:55;;;;;;;16.55;11.40;;;;;;;23.08;59.36;101074.91;1850073;77;21113;-87
2021/07/26 05:32:21;;;;;;;14.00;11.28;;;;;;;23.15;59.28;101080.17;1850004;77;21721;-87
2021/07/26 05:34:48;;;;;;;18.85;12.33;;;;;;;23.04;59.27;101067.84;1849942;77;21402;-87
2021/07/26 05:37:16;;;;;;;14.68;11.43;;;;;;;23.04;59.27;101067.84;1849693;77;20990;-87
2021/07/26 05:39:43;;;;;;;12.93;10.63;;;;;;;23.22;58.75;101085.84;1849990;77;21002;-87
2021/07/26 05:42:14;;;;;;;12.18;10.98;;;;;;;23.22;58.92;101080.47;1850112;77;21436;-87
2021/07/26 05:44:41;;;;;;;19.62;11.55;;;;;;;23.22;58.92;101080.47;1849510;76;21916;-87
2021/07/26 05:47:08;;;;;;;14.85;11.40;;;;;;;23.24;58.86;101088.91;1850023;77;21001;-87
2021/07/26 05:49:35;;;;;;;12.45;10.30;;;;;;;23.27;58.72;101086.16;1850006;77;21018;-87
2021/07/26 05:52:01;;;;;;;16.10;11.80;;;;;;;23.28;58.61;101085.69;1849992;77;21161;-86
2021/07/26 05:54:28;;;;;;;14.85;11.50;;;;;;;23.30;58.63;101086.54;1850144;77;21072;-86
2021/07/26 05:56:55;;;;;;;12.73;10.45;;;;;;;23.27;58.53;101075.41;1849974;77;21744;-87
2021/07/26 05:59:22;;;;;;;15.32;11.40;;;;;;;23.30;58.35;101078.48;1849966;77;21077;-87
2021/07/26 06:01:49;;;;;;;19.40;11.28;;;;;;;23.26;58.18;101074.98;1849776;77;21034;-88
2021/07/26 06:04:18;;;;;;;13.18;11.48;;;;;;;23.20;58.22;101071.09;1850017;77;20986;-87
2021/07/26 06:06:47;;;;;;;14.87;11.45;;;;;;;23.23;58.56;101080.87;1849978;77;21496;-88
2021/07/26 06:09:14;;;;;;;14.73;11.90;;;;;;;23.26;58.44;101071.42;1850116;77;21775;-88
2021/07/26 06:11:42;;;;;;;14.93;11.73;;;;;;;23.31;58.46;101043.09;1850036;77;20987;-88
2021/07/26 06:14:08;;;;;;;16.15;12.07;;;;;;;23.47;58.54;101056.60;1850086;77;21603;-87
2021/07/26 06:16:41;;;;;;;13.80;12.40;;;;;;;23.63;58.36;101082.62;1850044;77;21033;-87
2021/07/26 06:19:10;;;;;;;17.60;13.27;;;;;;;23.67;58.43;101084.34;1846214;77;21013;-88
2021/07/26 06:21:50;;;;;;;17.20;12.18;;;;;;;23.68;58.46;101086.09;1850358;77;21736;-88
2021/07/26 06:24:17;;;;;;;16.70;12.33;;;;;;;23.76;58.52;101082.78;1850159;77;21025;-87
2021/07/26 06:26:44;;;;;;;18.32;12.50;;;;;;;23.75;58.19;101080.13;1850002;77;20986;-88
2021/07/26 06:29:11;;;;;;;14.45;12.33;;;;;;;23.69;58.23;101075.78;1826466;77;21511;-88
2021/07/26 06:31:38;;;;;;;13.48;12.10;;;;;;;23.69;58.25;101086.54;1850054;77;21052;-87
2021/07/26 06:34:05;;;;;;;13.35;11.83;;;;;;;23.61;58.14;101081.78;1845930;77;21930;-88
2021/07/26 06:36:32;;;;;;;14.23;11.65;;;;;;;23.62;58.17;101079.53;1847940;77;21463;-87
2021/07/26 06:38:58;;;;;;;14.33;11.40;;;;;;;23.71;58.26;101086.51;1850206;77;21046;-87
2021/07/26 06:41:25;;;;;;;18.57;13.80;;;;;;;23.77;57.95;101089.91;1849980;77;21449;-87
2021/07/26 06:43:52;;;;;;;13.40;12.00;;;;;;;23.81;58.01;101079.53;1850034;77;21080;-87
2021/07/26 06:46:20;;;;;;;14.85;11.65;;;;;;;23.96;58.14;101079.61;1850115;77;22409;-87
2021/07/26 06:48:47;;;;;;;15.78;12.13;;;;;;;24.16;58.11;101073.73;1849998;77;20946;-87
2021/07/26 06:51:14;;;;;;;16.37;11.53;;;;;;;24.42;57.89;101082.45;1849969;77;20994;-88
2021/07/26 06:53:40;;;;;;;14.30;12.10;;;;;;;24.66;57.48;101084.52;1849968;77;20995;-87
2021/07/26 06:56:08;;;;;;;18.00;11.78;;;;;;;24.89;57.17;101076.68;1850004;77;21517;-87
2021/07/26 06:58:35;;;;;;;16.10;11.03;;;;;;;25.14;56.76;101078.64;1850219;77;21746;-87
2021/07/26 07:01:07;;;;;;;12.78;10.55;;;;;;;25.34;56.33;101077.59;1849983;77;20931;-87
2021/07/26 07:03:34;;;;;;;11.70;10.43;;;;;;;25.48;55.78;101068.19;1849922;77;21033;-87
2021/07/26 07:06:06;;;;;;;12.43;10.55;;;;;;;25.64;55.46;101069.91;1850000;77;21087;-87
2021/07/26 07:08:33;;;;;;;14.37;11.23;;;;;;;25.72;54.94;101075.95;1850149;77;20998;-87
2021/07/26 07:11:05;;;;;;;13.98;10.88;;;;;;;25.60;54.56;101079.47;1850063;77;21738;-87
2021/07/26 07:13:35;;;;;;;16.05;10.35;;;;;;;25.54;54.68;101076.07;1849781;77;20947;-87
2021/07/26 07:16:02;;;;;;;11.70;10.50;;;;;;;25.57;54.68;101075.98;1848556;77;20962;-87
2021/07/26 07:18:28;;;;;;;15.13;10.95;;;;;;;25.60;54.52;101075.42;1850076;77;21001;-87
2021/07/26 07:20:55;;;;;;;13.45;10.95;;;;;;;25.68;54.53;101083.73;1851412;77;20971;-87
2021/07/26 07:23:22;;;;;;;13.72;10.30;;;;;;;25.71;54.40;101076.39;1849871;77;21717;-87
2021/07/26 07:25:49;;;;;;;13.10;10.85;;;;;;;25.83;54.50;101079.62;1849885;77;20962;-87
2021/07/26 07:28:15;;;;;;;15.55;10.63;;;;;;;25.96;54.42;101072.94;1849930;76;21405;-87
2021/07/26 07:30:42;;;;;;;16.67;12.35;;;;;;;26.10;54.16;101081.42;1849885;77;21174;-87
2021/07/26 07:33:09;;;;;;;16.25;11.00;;;;;;;26.30;54.11;101090.66;1849866;77;21097;-87
2021/07/26 07:35:35;;;;;;;14.28;11.30;;;;;;;26.44;53.76;101095.56;1849897;77;21744;-87
2021/07/26 07:38:02;;;;;;;15.68;11.63;;;;;;;26.54;53.69;101091.58;1849765;77;20962;-87
2021/07/26 07:40:29;;;;;;;13.10;11.63;;;;;;;26.57;53.36;101103.14;1849999;77;21002;-87
2021/07/26 07:42:56;;;;;;;13.13;11.20;;;;;;;26.63;53.51;101100.73;1849995;77;20943;-88
2021/07/26 07:45:22;;;;;;;12.23;10.98;;;;;;;26.67;53.41;101093.39;1849960;77;20974;-87
2021/07/26 07:47:52;;;;;;;15.13;11.33;;;;;;;26.68;53.25;101092.48;1850016;77;22595;-87
2021/07/26 07:50:20;;;;;;;13.28;10.82;;;;;;;26.67;53.32;101088.00;1849852;77;20993;-88
2021/07/26 07:52:46;;;;;;;12.28;11.08;;;;;;;26.74;53.40;101084.14;1849918;76;20939;-87
2021/07/26 07:55:13;;;;;;;17.00;10.50;;;;;;;26.83;53.26;101072.99;1849917;77;21186;-87
2021/07/26 07:57:40;;;;;;;12.55;10.75;;;;;;;26.83;52.99;101074.34;1849982;77;21029;-87
2021/07/26 08:00:13;;;;;;;14.58;11.05;;;;;;;26.82;52.81;101071.22;1849755;77;21774;-88
2021/07/26 08:02:38;;;;;;;14.10;11.48;;;;;;;26.81;52.52;101071.30;1848987;76;21002;-88
2021/07/26 08:05:05;;;;;;;14.50;10.72;;;;;;;26.73;52.71;101063.02;1849796;77;20974;-87
2021/07/26 08:07:32;;;;;;;15.45;10.48;;;;;;;26.72;52.50;101063.06;1849919;77;21175;-88
2021/07/26 08:09:58;;;;;;;15.48;10.05;;;;;;;26.54;52.32;101058.73;1850001;77;21002;-88
2021/07/26 08:12:25;;;;;;;12.50;10.72;;;;;;;26.36;52.46;101044.55;1849967;76;21734;-86
2021/07/26 08:14:52;;;;;;;13.55;10.98;;;;;;;26.16;52.51;101043.91;1849781;77;21130;-87
2021/07/26 08:17:18;;;;;;;12.88;10.18;;;;;;;26.02;52.54;101039.48;1849943;77;21030;-87
2021/07/26 08:19:45;;;;;;;12.53;9.73;;;;;;;25.85;52.66;101041.38;1849998;77;21018;-87
2021/07/26 08:22:12;;;;;;;10.68;9.53;;;;;;;25.74;52.96;101030.47;1849697;77;20982;-88
2021/07/26 08:24:39;;;;;;;11.63;10.43;;;;;;;25.65;53.11;101037.52;1849969;77;21789;-87
2021/07/26 08:27:06;;;;;;;10.80;9.70;;;;;;;25.59;53.25;101030.98;1847517;77;20982;-87
2021/07/26 08:29:33;;;;;;;11.33;9.90;;;;;;;25.55;53.46;101027.98;1849894;77;21027;-87
2021/07/26 08:32:00;;;;;;;11.65;9.58;;;;;;;25.50;53.51;101019.16;1849851;77;20975;-87
2021/07/26 08:34:26;;;;;;;18.48;10.23;;;;;;;25.43;53.61;101028.37;1849685;77;21500;-87
2021/07/26 08:36:55;;;;;;;19.35;10.43;;;;;;;25.37;53.86;101024.94;1849971;77;21831;-87
2021/07/26 08:39:22;;;;;;;11.03;9.28;;;;;;;25.33;54.04;101029.14;1849882;77;20955;-87
2021/07/26 08:41:49;;;;;;;13.50;9.40;;;;;;;25.29;54.17;101030.17;1849890;77;20998;-87
2021/07/26 08:44:15;;;;;;;16.50;9.43;;;;;;;25.22;54.19;101021.35;1849886;77;21095;-87
2021/07/26 08:46:43;;;;;;;16.70;10.60;;;;;;;25.18;54.18;101019.22;1849963;77;20994;-87
2021/07/26 08:49:14;;;;;;;17.20;11.88;;;;;;;25.13;54.14;101017.16;1849880;77;21825;-87
2021/07/26 08:51:44;;;;;;;12.40;11.20;;;;;;;25.05;54.18;101007.07;1849882;77;21044;-87
2021/07/26 08:54:11;;;;;;;12.70;11.25;;;;;;;24.89;54.51;100998.59;1850059;77;20978;-88
2021/07/26 08:56:37;;;;;;;12.73;10.78;;;;;;;24.73;54.79;100994.13;1849719;77;21021;-87
2021/07/26 08:59:04;;;;;;;20.52;11.80;;;;;;;24.64;55.30;100993.05;1849780;77;20931;-87
2021/07/26 09:01:32;;;;;;;24.80;12.78;;;;;;;24.53;55.54;100991.14;1849603;77;22631;-88
2021/07/26 09:03:59;;;;;;;25.05;12.28;;;;;;;24.44;55.77;100999.00;1826874;77;21079;-87
2021/07/26 09:06:26;;;;;;;16.35;11.97;;;;;;;24.37;55.74;101001.44;1849973;77;20974;-87
2021/07/26 09:08:53;;;;;;;15.35;11.33;;;;;;;24.33;56.10;101006.02;1850150;77;21103;-88
2021/07/26 09:11:20;;;;;;;11.73;10.15;;;;;;;24.33;56.02;101016.78;1849966;77;21468;-87
2021/07/26 09:13:46;;;;;;;12.75;10.28;;;;;;;24.36;56.01;101010.42;1850065;77;21728;-87
2021/07/26 09:16:22;;;;;;;19.77;12.15;;;;;;;24.42;55.88;101012.97;1849884;77;20990;-87
2021/07/26 09:19:01;;;;;;;15.93;12.03;;;;;;;24.42;55.96;101008.45;1849670;77;21053;-88
2021/07/26 09:21:51;;;;;;;14.18;10.58;;;;;;;24.51;56.01;101018.05;1849704;77;20951;-86
2021/07/26 09:24:29;;;;;;;13.40;10.60;;;;;;;24.68;56.12;101028.36;1849880;77;21100;-86
2021/07/26 09:27:13;;;;;;;15.32;9.98;;;;;;;24.88;56.19;101018.83;1850000;77;21734;-86
2021/07/26 09:29:40;;;;;;;12.13;9.28;;;;;;;25.01;55.70;101020.22;1850024;77;21037;-87
2021/07/26 09:32:07;;;;;;;12.95;8.73;;;;;;;25.08;55.46;101020.92;1850253;77;21021;-87
2021/07/26 09:34:37;;;;;;;14.80;9.80;;;;;;;25.19;55.07;101020.13;1850153;77;21054;-88
2021/07/26 09:37:20;;;;;;;15.48;10.20;;;;;;;25.31;54.94;101019.75;1843879;77;21464;-87
2021/07/26 09:39:47;;;;;;;11.35;9.65;;;;;;;25.39;54.69;101008.72;1850047;77;21777;-87
2021/07/26 09:42:28;;;;;;;12.65;9.65;;;;;;;25.47;54.36;101007.12;1850008;77;20966;-86
2021/07/26 09:44:55;;;;;;;15.98;10.32;;;;;;;25.49;54.04;101006.59;1849983;77;21010;-87
2021/07/26 09:47:23;;;;;;;15.65;9.18;;;;;;;25.38;54.02;101011.02;1823690;77;21218;-87
2021/07/26 09:49:49;;;;;;;15.03;10.43;;;;;;;25.33;54.20;101011.15;1850100;77;21487;-87
2021/07/26 09:52:21;;;;;;;14.43;10.32;;;;;;;25.23;54.01;101007.00;1850030;77;21729;-87
2021/07/26 09:54:49;;;;;;;14.18;10.13;;;;;;;25.05;54.13;101007.54;1849346;77;21026;-87
2021/07/26 09:57:23;;;;;;;22.20;11.25;;;;;;;24.94;54.22;101010.09;1849832;77;21013;-87
2021/07/26 09:59:51;;;;;;;11.57;10.48;;;;;;;24.88;54.46;101008.94;1849594;77;21543;-87
2021/07/26 10:02:23;;;;;;;15.90;11.48;;;;;;;24.81;54.52;100998.83;1849683;77;21030;-87
2021/07/26 10:04:50;;;;;;;16.65;12.37;;;;;;;24.78;54.58;101004.77;1849916;77;21812;-87
2021/07/26 10:07:18;;;;;;;14.23;11.75;;;;;;;24.67;54.62;101004.21;1849847;77;21006;-87
2021/07/26 10:09:46;;;;;;;17.07;11.63;;;;;;;24.67;54.94;100997.48;1849775;77;21110;-88
2021/07/26 10:12:16;;;;;;;14.95;10.65;;;;;;;24.80;55.01;100998.41;1849513;77;21477;-87
2021/07/26 10:14:44;;;;;;;14.53;10.88;;;;;;;24.99;55.09;100996.50;1849756;76;20970;-87
2021/07/26 10:17:11;;;;;;;14.93;11.78;;;;;;;25.14;54.84;101005.44;1849547;77;22151;-86
2021/07/26 10:19:38;;;;;;;12.80;10.50;;;;;;;25.30;54.81;100996.89;1849726;77;20931;-86
2021/07/26 10:22:06;;;;;;;16.52;11.55;;;;;;;25.45;54.71;100996.86;1849873;77;20906;-86
2021/07/26 10:24:44;;;;;;;19.62;11.63;;;;;;;25.55;54.53;101001.03;1849916;77;21210;-86
2021/07/26 10:27:14;;;;;;;20.97;12.28;;;;;;;25.60;54.20;100995.90;1845302;76;21034;-87
2021/07/26 10:29:51;;;;;;;14.68;11.65;;;;;;;25.51;54.37;100992.16;1845297;76;21957;-87
2021/07/26 10:32:33;;;;;;;15.98;12.37;;;;;;;25.56;54.78;100997.38;1850038;77;21256;-87
2021/07/26 10:35:06;;;;;;;14.20;11.80;;;;;;;25.52;54.88;100990.34;1850166;77;21033;-86
2021/07/26 10:37:46;;;;;;;17.77;12.13;;;;;;;25.51;54.83;100992.61;1846572;77;21425;-87
2021/07/26 10:40:30;;;;;;;19.77;12.50;;;;;;;25.47;54.46;100996.34;1849726;77;21381;-86
2021/07/26 10:43:01;;;;;;;12.18;10.98;;;;;;;25.32;54.37;100994.58;1850111;77;21252;-87
2021/07/26 10:45:38;;;;;;;16.07;12.43;;;;;;;25.12;54.54;100986.23;1849893;77;20966;-87
2021/07/26 10:48:31;;;;;;;13.43;11.48;;;;;;;24.97;54.86;100990.28;1846275;77;21430;-87
2021/07/26 10:51:02;;;;;;;16.48;13.10;;;;;;;24.82;55.06;100994.32;1849676;77;21025;-87
2021/07/26 10:53:43;;;;;;;17.70;12.68;;;;;;;24.67;55.34;100993.44;1850090;77;21053;-87
2021/07/26 10:56:14;;;;;;;13.80;11.88;;;;;;;24.54;55.49;100991.09;1850157;77;21776;-87
2021/07/26 10:59:02;;;;;;;18.95;13.45;;;;;;;24.44;55.77;100997.19;1850113;77;21054;-86
2021/07/26 11:01:34;;;;;;;13.85;12.53;;;;;;;24.37;56.11;100988.86;1850834;77;21013;-86
2021/07/26 11:04:00;;;;;;;15.25;13.45;;;;;;;24.30;56.17;100993.12;1851154;77;20974;-85
2021/07/26 11:06:41;;;;;;;16.57;13.60;;;;;;;24.22;56.53;100990.64;1850084;77;21018;-87
2021/07/26 11:09:38;;;;;;;14.73;13.15;;;;;;;24.17;56.79;100989.88;1850124;77;21733;-86
2021/07/26 11:11:57;;;;;;;18.25;14.13;;;;;;;24.13;57.04;100986.86;1836462;77;21444;-86
2021/07/26 11:14:24;;;;;;;15.55;12.73;;;;;;;24.08;57.28;100982.06;1850069;77;20967;-86
2021/07/26 11:17:07;;;;;;;17.55;13.05;;;;;;;23.98;57.66;100986.34;1849969;77;21017;-87